Deerfield, Wisconsin
Current Conditions -  °F | °C
As of 5:53 AM on Saturday 20 Dec 2014 (Local Time) from KMSN Reporting Station
Light Snow Light Snow  
Wind Chill: 27°   Ceiling: 3300
Heat Index: 27°   Visibility: 7mi
Dew Point: 23°   Wind: 0mph
Humidity: 85%   Direction: NA
Pressure: 30.25"   Gusts: NA
Location:  43.05°N, 89.08°W
Report Text: KMSN 201153Z 00000KT 7SM -SN FEW010 BKN033 OVC042 M03/M05 A3025 RMK AO2 SNB44 SLP256 FIRST AUGMENTED OBS OF THE DAY P0000 60000 T10281050 11028 21033 55005
Loading
Personal Weather Stations






























Interactive Weather Map New forecast layout! Learn more

10-Day Weather Forecast

Advertisements
Track Severe Weather on mobile